createdAt,value
2022-11-29T00:03:31.400Z,102228.53
2022-11-29T00:07:30.746Z,102228.67
2022-11-29T00:11:50.125Z,102229.17
2022-11-29T00:15:49.300Z,102231.52
2022-11-29T00:19:47.738Z,102232.73
2022-11-29T00:23:46.709Z,102233.24
2022-11-29T00:27:45.761Z,102234.60
2022-11-29T00:31:44.737Z,102230.42
2022-11-29T00:35:43.677Z,102227.45
2022-11-29T00:39:42.378Z,102225.06
2022-11-29T00:43:41.120Z,102226.09
2022-11-29T00:47:53.966Z,102226.90
2022-11-29T00:51:53.360Z,102225.10
2022-11-29T00:55:53.009Z,102222.61
2022-11-29T00:59:52.366Z,102222.69
2022-11-29T01:04:24.240Z,102221.92
2022-11-29T01:07:42.817Z,102214.34
2022-11-29T01:11:41.481Z,102211.30
2022-11-29T01:15:40.359Z,102212.05
2022-11-29T01:19:39.479Z,102208.84
2022-11-29T01:23:38.450Z,102214.08
2022-11-29T01:27:37.626Z,102214.20
2022-11-29T01:31:37.226Z,102213.75
2022-11-29T01:35:36.200Z,102214.55
2022-11-29T01:39:35.399Z,102215.23
2022-11-29T01:43:34.722Z,102215.15
2022-11-29T01:47:43.977Z,102219.35
2022-11-29T01:51:11.162Z,102218.17
2022-11-29T01:55:24.030Z,102218.77
2022-11-29T01:59:25.980Z,102220.75
2022-11-29T02:03:25.358Z,102221.09
2022-11-29T02:07:24.559Z,102225.94
2022-11-29T02:11:42.204Z,102223.22
2022-11-29T02:15:44.059Z,102223.86
2022-11-29T02:20:20.859Z,102228.11
2022-11-29T02:23:25.323Z,102231.73
2022-11-29T02:27:30.772Z,102230.02
2022-11-29T02:31:42.097Z,102229.49
2022-11-29T02:35:43.625Z,102233.54
2022-11-29T02:39:49.738Z,102234.54
2022-11-29T02:43:48.658Z,102236.59
2022-11-29T02:47:53.397Z,102240.84
2022-11-29T02:51:58.063Z,102240.65
2022-11-29T02:56:15.321Z,102247.52
2022-11-29T03:00:16.360Z,102245.92
2022-11-29T03:04:18.258Z,102253.73
2022-11-29T03:08:35.833Z,102249.96
2022-11-29T03:12:43.574Z,102244.34
2022-11-29T03:16:47.587Z,102243.94
2022-11-29T03:21:05.047Z,102241.54
2022-11-29T03:25:09.547Z,102240.70
2022-11-29T03:29:21.116Z,102246.77
2022-11-29T03:33:23.053Z,102248.29
2022-11-29T03:37:26.108Z,102246.07
2022-11-29T03:41:24.556Z,102251.59
2022-11-29T03:45:23.518Z,102247.71
2022-11-29T03:49:37.909Z,102247.65
2022-11-29T03:53:39.997Z,102246.89
2022-11-29T03:57:59.184Z,102254.58
2022-11-29T04:02:18.326Z,102256.27
2022-11-29T04:06:20.057Z,102261.52
2022-11-29T04:10:43.996Z,102270.33
2022-11-29T04:14:56.187Z,102271.61
2022-11-29T04:19:13.724Z,102274.73
2022-11-29T04:23:27.716Z,102280.95
2022-11-29T04:27:46.817Z,102275.48
2022-11-29T04:32:04.578Z,102278.55
2022-11-29T04:36:22.183Z,102279.90
2022-11-29T04:40:44.533Z,102282.09
2022-11-29T04:44:43.455Z,102284.54
2022-11-29T04:49:01.298Z,102285.45
2022-11-29T04:53:20.838Z,102287.67
2022-11-29T04:56:43.377Z,102295.29
2022-11-29T05:00:50.428Z,102301.10
2022-11-29T05:05:06.274Z,102296.08
2022-11-29T05:09:23.532Z,102304.47
2022-11-29T05:13:41.049Z,102314.33
2022-11-29T05:17:53.535Z,102307.41
2022-11-29T05:22:16.490Z,102307.52
2022-11-29T05:26:18.140Z,102306.20
2022-11-29T05:30:22.786Z,102308.89
2022-11-29T05:33:54.410Z,102311.50
2022-11-29T05:38:09.121Z,102312.40
2022-11-29T05:42:26.688Z,102319.63
2022-11-29T05:46:38.135Z,102325.45
2022-11-29T05:50:40.131Z,102331.36
2022-11-29T05:54:57.636Z,102328.89
2022-11-29T05:58:59.233Z,102334.00
2022-11-29T06:03:03.595Z,102337.80
2022-11-29T06:07:16.705Z,102342.54
2022-11-29T06:11:56.045Z,102347.96
2022-11-29T06:15:14.007Z,102346.91
2022-11-29T06:19:31.631Z,102350.95
2022-11-29T06:23:44.532Z,102354.16
2022-11-29T06:27:46.664Z,102356.85
2022-11-29T06:31:52.498Z,102362.42
2022-11-29T06:36:10.031Z,102370.71
2022-11-29T06:40:14.371Z,102368.82
2022-11-29T06:44:13.626Z,102376.36
2022-11-29T06:48:16.530Z,102381.24
2022-11-29T06:52:34.196Z,102386.68
2022-11-29T06:56:47.315Z,102381.36
2022-11-29T07:00:55.837Z,102379.98
2022-11-29T07:05:20.806Z,102388.11
2022-11-29T07:09:20.668Z,102388.38
2022-11-29T07:13:20.648Z,102389.67
2022-11-29T07:17:19.249Z,102390.64
2022-11-29T07:21:21.160Z,102398.63
2022-11-29T07:25:33.988Z,102400.58
2022-11-29T07:29:04.068Z,102404.94
2022-11-29T07:33:18.484Z,102406.96
2022-11-29T07:37:36.116Z,102406.52
2022-11-29T07:41:53.576Z,102407.90
2022-11-29T07:45:52.382Z,102409.46
2022-11-29T07:49:52.135Z,102414.06
2022-11-29T07:53:51.226Z,102419.29
2022-11-29T07:57:50.826Z,102420.58
2022-11-29T08:01:49.745Z,102418.23
2022-11-29T08:05:49.138Z,102415.84
2022-11-29T08:09:48.107Z,102417.45
2022-11-29T08:13:47.254Z,102417.08
2022-11-29T08:17:46.871Z,102415.85
2022-11-29T08:21:47.893Z,102420.57
2022-11-29T08:26:01.907Z,102420.52
2022-11-29T08:30:01.103Z,102417.04
2022-11-29T08:33:59.750Z,102417.16
2022-11-29T08:37:58.698Z,102417.10
2022-11-29T08:41:58.014Z,102415.20
2022-11-29T08:45:57.470Z,102411.97
2022-11-29T08:50:02.291Z,102418.77
2022-11-29T08:54:01.635Z,102418.02
2022-11-29T08:58:01.655Z,102415.35
2022-11-29T09:02:01.125Z,102414.05
2022-11-29T09:06:10.529Z,102411.81
2022-11-29T09:10:12.336Z,102413.17
2022-11-29T09:14:13.222Z,102415.45
2022-11-29T09:18:12.515Z,102411.98
2022-11-29T09:22:11.456Z,102408.20
2022-11-29T09:26:10.936Z,102409.73
2022-11-29T09:30:10.640Z,102406.38
2022-11-29T09:34:09.453Z,102407.69
2022-11-29T09:38:11.153Z,102405.69
2022-11-29T09:42:28.815Z,102407.92
2022-11-29T09:46:46.472Z,102406.55
2022-11-29T09:51:05.492Z,102403.02
2022-11-29T09:55:23.103Z,102400.45
2022-11-29T09:59:27.613Z,102405.05
2022-11-29T10:03:32.062Z,102405.25
2022-11-29T10:07:31.828Z,102408.73
2022-11-29T10:11:57.051Z,102409.67
2022-11-29T10:16:01.976Z,102412.56
2022-11-29T10:20:04.720Z,102417.98
2022-11-29T10:24:13.631Z,102415.34
2022-11-29T10:28:26.669Z,102418.20
2022-11-29T10:32:25.892Z,102417.61
2022-11-29T10:36:40.873Z,102418.55
2022-11-29T10:40:42.050Z,102412.61
2022-11-29T10:44:41.554Z,102411.41
2022-11-29T10:48:40.285Z,102410.59
2022-11-29T10:52:39.460Z,102415.34
2022-11-29T10:56:39.690Z,102410.46
2022-11-29T11:00:45.697Z,102415.69
2022-11-29T11:04:46.457Z,102412.28
2022-11-29T11:08:51.650Z,102411.34
2022-11-29T11:13:17.049Z,102411.42
2022-11-29T11:17:15.632Z,102415.45
2022-11-29T11:21:15.614Z,102415.52
2022-11-29T11:25:34.934Z,102417.83
2022-11-29T11:29:41.415Z,102415.33
2022-11-29T11:33:41.987Z,102416.52
2022-11-29T11:37:40.634Z,102420.34
2022-11-29T11:42:00.869Z,102419.49
2022-11-29T11:46:00.067Z,102421.07
2022-11-29T11:50:06.930Z,102421.38
2022-11-29T11:54:13.928Z,102414.98
2022-11-29T11:57:43.491Z,102416.56
2022-11-29T12:01:42.449Z,102417.02
2022-11-29T12:05:44.851Z,102416.63
2022-11-29T12:09:48.072Z,102417.73
2022-11-29T12:13:51.027Z,102417.07
2022-11-29T12:17:55.917Z,102416.61
2022-11-29T12:22:15.911Z,102411.98
2022-11-29T12:25:34.770Z,102408.65
2022-11-29T12:29:34.493Z,102411.07
2022-11-29T12:33:53.242Z,102414.35
2022-11-29T12:37:56.907Z,102416.98
2022-11-29T12:41:57.791Z,102415.27
2022-11-29T12:46:14.169Z,102419.76
2022-11-29T12:50:07.430Z,102419.31
2022-11-29T12:54:06.113Z,102422.02
2022-11-29T12:58:05.255Z,102424.17
2022-11-29T13:02:04.331Z,102427.53
2022-11-29T13:06:07.910Z,102431.17
2022-11-29T13:10:39.625Z,102433.67
2022-11-29T13:15:15.259Z,102437.52
2022-11-29T13:18:37.780Z,102437.20
2022-11-29T13:22:46.467Z,102442.85
2022-11-29T13:26:46.190Z,102443.93
2022-11-29T13:30:45.268Z,102443.27
2022-11-29T13:34:47.198Z,102445.98
2022-11-29T13:39:05.558Z,102444.30
2022-11-29T13:43:08.024Z,102447.58
2022-11-29T13:47:19.626Z,102445.56
2022-11-29T13:50:52.825Z,102441.23
2022-11-29T13:55:12.567Z,102447.04
2022-11-29T13:59:30.596Z,102448.36
2022-11-29T14:03:31.887Z,102457.32
2022-11-29T14:07:33.412Z,102451.65
2022-11-29T14:11:34.643Z,102454.59
2022-11-29T14:15:37.381Z,102456.06
2022-11-29T14:19:37.193Z,102451.55
2022-11-29T14:23:37.231Z,102452.96
2022-11-29T14:27:36.331Z,102451.64
2022-11-29T14:31:53.847Z,102454.92
2022-11-29T14:36:08.228Z,102453.02
2022-11-29T14:40:32.860Z,102457.48
2022-11-29T14:44:33.156Z,102453.13
2022-11-29T14:48:33.263Z,102453.33
2022-11-29T14:52:32.591Z,102453.66
2022-11-29T14:56:31.489Z,102453.14
2022-11-29T15:00:43.949Z,102458.30
2022-11-29T15:04:43.879Z,102457.06
2022-11-29T15:08:50.408Z,102464.27
2022-11-29T15:13:04.712Z,102460.30
2022-11-29T15:17:21.091Z,102465.19
2022-11-29T15:21:20.310Z,102464.44
2022-11-29T15:25:21.406Z,102467.02
2022-11-29T15:29:21.556Z,102468.15
2022-11-29T15:33:22.844Z,102466.50
2022-11-29T15:37:40.107Z,102466.83
2022-11-29T15:41:41.287Z,102466.89
2022-11-29T15:45:30.603Z,102472.42
2022-11-29T15:49:44.242Z,102474.40
2022-11-29T15:54:13.145Z,102480.29
2022-11-29T15:57:26.533Z,102478.49
2022-11-29T16:01:26.010Z,102482.42
2022-11-29T16:05:34.303Z,102487.08
2022-11-29T16:09:03.281Z,102485.83
2022-11-29T16:13:25.067Z,102490.64
2022-11-29T16:17:29.588Z,102491.70
2022-11-29T16:21:30.227Z,102500.59
2022-11-29T16:25:36.130Z,102494.77
2022-11-29T16:29:45.365Z,102498.21
2022-11-29T16:33:45.129Z,102501.55
2022-11-29T16:37:44.772Z,102500.17
2022-11-29T16:41:44.387Z,102511.80
2022-11-29T16:45:44.079Z,102515.20
2022-11-29T16:49:44.390Z,102518.20
2022-11-29T16:53:47.886Z,102519.27
2022-11-29T16:57:47.534Z,102518.83
2022-11-29T17:01:48.170Z,102528.17
2022-11-29T17:05:24.284Z,102527.59
2022-11-29T17:09:28.298Z,102528.06
2022-11-29T17:13:27.914Z,102532.88
2022-11-29T17:17:27.383Z,102529.65
2022-11-29T17:21:27.689Z,102539.66
2022-11-29T17:25:26.748Z,102545.30
2022-11-29T17:29:26.609Z,102546.40
2022-11-29T17:33:25.859Z,102551.88
2022-11-29T17:37:39.416Z,102549.73
2022-11-29T17:41:52.650Z,102549.73
2022-11-29T17:45:51.951Z,102557.06
2022-11-29T17:49:51.276Z,102554.58
2022-11-29T17:53:51.281Z,102556.67
2022-11-29T17:57:50.683Z,102564.04
2022-11-29T18:01:50.394Z,102573.41
2022-11-29T18:05:51.723Z,102571.36
2022-11-29T18:09:51.272Z,102573.36
2022-11-29T18:13:52.622Z,102574.89
2022-11-29T18:17:51.528Z,102572.94
2022-11-29T18:21:51.634Z,102574.77
2022-11-29T18:26:01.469Z,102574.07
2022-11-29T18:30:00.798Z,102570.92
2022-11-29T18:34:01.621Z,102573.30
2022-11-29T18:38:16.727Z,102569.59
2022-11-29T18:42:22.182Z,102576.19
2022-11-29T18:45:53.978Z,102581.44
2022-11-29T18:50:34.205Z,102579.66
2022-11-29T18:53:45.565Z,102579.06
2022-11-29T18:57:47.913Z,102580.78
2022-11-29T19:01:48.560Z,102583.52
2022-11-29T19:05:56.349Z,102588.34
2022-11-29T19:09:25.710Z,102586.36
2022-11-29T19:13:24.702Z,102585.75
2022-11-29T19:17:23.900Z,102591.13
2022-11-29T19:21:24.644Z,102594.30
2022-11-29T19:25:23.702Z,102595.64
2022-11-29T19:29:23.622Z,102594.86
2022-11-29T19:33:25.084Z,102601.55
2022-11-29T19:37:24.411Z,102595.50
2022-11-29T19:41:38.021Z,102597.88
2022-11-29T19:45:40.700Z,102598.70
2022-11-29T19:49:44.788Z,102600.26
2022-11-29T19:53:46.628Z,102603.40
2022-11-29T19:57:46.323Z,102614.34
2022-11-29T20:01:45.401Z,102611.39
2022-11-29T20:05:53.177Z,102611.55
2022-11-29T20:09:52.044Z,102615.44
2022-11-29T20:13:55.429Z,102616.91
2022-11-29T20:17:54.646Z,102616.63
2022-11-29T20:21:54.056Z,102619.48
2022-11-29T20:25:53.596Z,102622.11
2022-11-29T20:29:52.963Z,102618.75
2022-11-29T20:33:53.242Z,102619.94
2022-11-29T20:37:55.173Z,102619.45
2022-11-29T20:41:54.172Z,102623.90
2022-11-29T20:45:53.910Z,102623.14
2022-11-29T20:49:53.286Z,102620.13
2022-11-29T20:53:52.562Z,102621.34
2022-11-29T20:57:51.752Z,102616.36
2022-11-29T21:02:04.444Z,102621.43
2022-11-29T21:06:05.071Z,102619.03
2022-11-29T21:10:04.925Z,102626.50
2022-11-29T21:14:06.223Z,102630.69
2022-11-29T21:18:05.825Z,102630.96
2022-11-29T21:22:07.815Z,102635.86
2022-11-29T21:26:17.353Z,102638.73
2022-11-29T21:30:19.334Z,102639.49
2022-11-29T21:34:19.870Z,102646.07
2022-11-29T21:38:22.776Z,102654.11
2022-11-29T21:41:57.305Z,102659.95
2022-11-29T21:45:57.581Z,102662.87
2022-11-29T21:49:57.505Z,102660.66
2022-11-29T21:53:56.704Z,102662.57
2022-11-29T21:57:55.924Z,102670.07
2022-11-29T22:02:10.053Z,102678.14
2022-11-29T22:06:15.036Z,102676.99
2022-11-29T22:10:18.475Z,102672.67
2022-11-29T22:14:18.738Z,102679.04
2022-11-29T22:18:18.264Z,102670.92
2022-11-29T22:22:17.392Z,102677.83
2022-11-29T22:26:16.498Z,102678.80
2022-11-29T22:30:15.967Z,102677.52
2022-11-29T22:34:15.242Z,102676.06
2022-11-29T22:38:16.207Z,102680.12
2022-11-29T22:41:54.617Z,102680.03
2022-11-29T22:45:54.243Z,102675.30
2022-11-29T22:49:55.425Z,102680.96
2022-11-29T22:53:31.153Z,102685.19
2022-11-29T22:57:29.997Z,102688.17
2022-11-29T23:01:42.687Z,102688.86
2022-11-29T23:05:41.321Z,102693.64
2022-11-29T23:09:40.794Z,102684.96
2022-11-29T23:13:41.640Z,102683.63
2022-11-29T23:17:40.950Z,102684.55
2022-11-29T23:21:40.855Z,102685.41
2022-11-29T23:25:46.759Z,102681.31
2022-11-29T23:30:05.719Z,102674.13
2022-11-29T23:33:23.607Z,102674.98
2022-11-29T23:37:22.669Z,102670.86
2022-11-29T23:41:21.925Z,102673.26
2022-11-29T23:45:20.956Z,102674.08
2022-11-29T23:49:35.831Z,102669.14
2022-11-29T23:53:34.740Z,102668.60
2022-11-29T23:57:33.827Z,102665.95
